Myrtle Creek, Oregon
Current Conditions -  °F | °C
As of 4:17 AM on Thursday 29 Jan 2015 (Local Time) from KRBG Reporting Station
Moderate Fog Moderate Fog  
Wind Chill: 45°   Ceiling: 200
Heat Index: 45°   Visibility: 0.5mi
Dew Point: 44°   Wind: 0mph
Humidity: 97%   Direction: NA
Pressure: 30.29"   Gusts: NA
Location:  43.02°N, 123.29°W
Report Text: KRBG 291217Z AUTO 00000KT 1/2SM FG VV002 07/07 A3029 RMK AO2 T00720067
Loading
Personal Weather Stations






























Interactive Weather Map New forecast layout! Learn more

10-Day Weather Forecast

Advertisements
Track Severe Weather on mobile